Time;durP1;ratioP1;P1;durP2;ratioP2;P2;SDS_P1;SDS_P2;PMS_P1;PMS_P2;Temp;Humidity;BMP_temperature;BMP_pressure;BME280_temperature;BME280_humidity;BME280_pressure;Samples;Min_cycle;Max_cycle;Signal;HPM_P1;HPM_P2
2022/11/21 00:02:22;;;;;;;7.32;3.65;;;3.30;95.60;;;;;;5048160;28;20128;-86
2022/11/21 00:05:56;;;;;;;6.72;3.42;;;3.30;95.60;;;;;;5095590;28;20036;-86
2022/11/21 00:08:29;;;;;;;9.25;4.82;;;3.30;95.60;;;;;;5085618;28;20040;-86
2022/11/21 00:11:30;;;;;;;9.52;4.68;;;3.20;95.50;;;;;;5094343;28;20048;-86
2022/11/21 00:19:08;;;;;;;7.95;3.63;;;3.20;95.60;;;;;;5112625;27;20450;-83
2022/11/21 00:22:00;;;;;;;9.02;3.75;;;3.10;95.50;;;;;;5109837;28;20031;-83
2022/11/21 00:24:51;;;;;;;8.80;3.67;;;3.10;95.50;;;;;;5040349;28;20077;-83
2022/11/21 00:27:30;;;;;;;8.45;3.53;;;3.20;95.60;;;;;;5093240;28;20044;-83
2022/11/21 00:34:56;;;;;;;6.45;3.08;;;3.20;95.60;;;;;;5114614;28;20494;-83
2022/11/21 00:38:38;;;;;;;8.73;3.63;;;3.20;95.60;;;;;;5084206;28;20504;-82
2022/11/21 00:41:21;;;;;;;9.25;4.35;;;3.20;95.50;;;;;;5090203;28;20399;-82
2022/11/21 00:48:53;;;;;;;10.27;4.22;;;3.20;95.50;;;;;;5110997;28;20089;-82
2022/11/21 00:55:41;;;;;;;7.40;3.40;;;3.20;95.60;;;;;;5098244;28;20468;-81
2022/11/21 00:58:31;;;;;;;8.05;3.45;;;3.20;95.60;;;;;;5090081;28;20588;-82
2022/11/21 01:01:38;;;;;;;6.93;3.42;;;3.20;95.60;;;;;;5053981;28;20127;-82
2022/11/21 01:04:43;;;;;;;5.47;2.60;;;3.20;95.60;;;;;;4979857;28;20061;-83
2022/11/21 01:07:22;;;;;;;7.25;3.40;;;3.20;95.60;;;;;;4962040;28;20050;-83
2022/11/21 01:11:07;;;;;;;7.03;3.35;;;3.20;95.60;;;;;;4957141;28;20054;-83
2022/11/21 01:13:59;;;;;;;8.55;3.80;;;3.20;95.60;;;;;;4985814;28;20565;-83
2022/11/21 01:17:27;;;;;;;9.20;3.88;;;3.20;95.60;;;;;;4968407;28;20499;-82
2022/11/21 01:19:54;;;;;;;7.95;3.20;;;3.20;95.80;;;;;;4945647;28;20051;-83
2022/11/21 01:22:36;;;;;;;8.77;3.60;;;3.20;95.60;;;;;;4947980;28;20506;-83
2022/11/21 01:25:13;;;;;;;8.27;4.35;;;3.20;95.60;;;;;;4946551;28;20050;-83
2022/11/21 01:28:01;;;;;;;8.90;4.43;;;3.20;95.60;;;;;;4979395;28;20054;-82
2022/11/21 01:30:36;;;;;;;9.40;3.90;;;3.20;95.60;;;;;;4977653;28;20045;-82
2022/11/21 01:33:20;;;;;;;9.75;4.72;;;3.10;95.60;;;;;;5026395;28;20045;-83
2022/11/21 01:35:56;;;;;;;11.25;5.60;;;3.10;95.60;;;;;;5058370;28;20062;-82
2022/11/21 01:38:23;;;;;;;11.90;6.07;;;3.10;95.60;;;;;;5091316;28;20056;-83
2022/11/21 01:41:01;;;;;;;11.23;4.72;;;3.10;95.60;;;;;;5089232;28;20159;-83
2022/11/21 01:43:36;;;;;;;9.20;4.30;;;3.10;95.60;;;;;;5084339;28;20116;-83
2022/11/21 01:46:29;;;;;;;10.13;4.53;;;3.10;95.70;;;;;;5099646;28;20052;-82
2022/11/21 01:49:10;;;;;;;9.63;4.68;;;3.10;95.60;;;;;;5100455;28;20036;-84
2022/11/21 01:52:21;;;;;;;10.95;5.00;;;3.20;95.60;;;;;;5100411;28;20043;-83
2022/11/21 01:55:21;;;;;;;10.73;4.80;;;3.10;95.80;;;;;;5105627;28;20040;-83
2022/11/21 01:57:59;;;;;;;11.95;5.63;;;3.20;95.60;;;;;;5109920;28;20050;-83
2022/11/21 02:00:48;;;;;;;13.65;5.50;;;3.10;95.60;;;;;;5097014;28;20044;-82
2022/11/21 02:03:43;;;;;;;12.95;4.90;;;3.10;95.60;;;;;;5079568;28;20052;-83
2022/11/21 02:06:31;;;;;;;10.20;4.95;;;3.10;95.60;;;;;;5096880;28;20152;-83
2022/11/21 02:09:49;;;;;;;9.15;3.95;;;3.10;95.60;;;;;;5080731;28;20111;-83
2022/11/21 02:12:48;;;;;;;9.70;4.43;;;3.10;95.60;;;;;;5091455;28;20495;-84
2022/11/21 02:15:46;;;;;;;9.32;4.38;;;3.10;95.60;;;;;;5104067;27;20052;-84
2022/11/21 02:18:45;;;;;;;9.43;4.68;;;3.20;95.70;;;;;;5101419;28;20518;-83
2022/11/21 02:25:19;;;;;;;7.07;3.63;;;3.20;95.60;;;;;;5108525;28;20059;-84
2022/11/21 02:28:12;;;;;;;9.30;4.20;;;3.20;95.60;;;;;;5109191;28;20093;-83
2022/11/21 02:31:12;;;;;;;9.57;4.40;;;3.20;95.60;;;;;;5087059;28;20060;-84
2022/11/21 02:38:26;;;;;;;9.07;3.72;;;3.20;95.50;;;;;;5043028;28;20048;-84
2022/11/21 02:41:27;;;;;;;10.50;4.63;;;3.20;95.50;;;;;;5104373;28;20043;-84
2022/11/21 02:44:47;;;;;;;10.15;4.05;;;3.20;95.50;;;;;;5093390;28;20086;-84
2022/11/21 02:48:01;;;;;;;9.20;3.72;;;3.20;95.50;;;;;;5039393;28;20060;-84
2022/11/21 02:59:31;;;;;;;7.78;3.45;;;3.30;95.60;;;;;;4973175;28;20043;-84
2022/11/21 03:02:57;;;;;;;10.25;4.65;;;3.20;95.50;;;;;;4935285;28;20146;-84
2022/11/21 03:14:55;;;;;;;;;;;;;;;;;;;;;
2022/11/21 03:17:35;;;;;;;11.85;4.90;;;3.10;95.50;;;;;;5020887;28;20076;-84
2022/11/21 03:24:29;;;;;;;9.48;4.30;;;3.10;95.60;;;;;;5042629;28;20212;-84
2022/11/21 03:27:04;;;;;;;8.27;3.85;;;3.00;95.60;;;;;;5036254;28;20139;-83
2022/11/21 03:29:54;;;;;;;10.90;5.18;;;3.00;95.60;;;;;;5002858;28;20044;-85
2022/11/21 03:40:36;;;;;;;11.02;5.05;;;3.10;95.70;;;;;;5112883;28;20047;-85
2022/11/21 03:47:47;;;;;;;8.50;3.83;;;3.00;95.60;;;;;;5094110;28;20127;-85
2022/11/21 03:51:03;;;;;;;11.82;3.92;;;3.00;95.70;;;;;;5035419;28;20073;-85
2022/11/21 03:53:56;;;;;;;10.45;4.00;;;3.10;95.70;;;;;;4975139;28;20554;-84
2022/11/21 03:56:30;;;;;;;10.63;4.68;;;3.10;95.70;;;;;;4973078;28;20058;-84
2022/11/21 04:03:23;;;;;;;11.68;4.70;;;3.10;95.60;;;;;;5028470;28;20100;-84
2022/11/21 04:05:56;;;;;;;8.98;4.10;;;3.10;95.60;;;;;;5010786;28;20049;-83
2022/11/21 04:08:58;;;;;;;10.90;4.78;;;3.10;95.60;;;;;;5026320;28;20073;-83
2022/11/21 04:12:21;;;;;;;9.45;4.90;;;3.20;95.60;;;;;;4972570;28;20054;-84
2022/11/21 04:15:02;;;;;;;12.38;5.50;;;3.20;95.60;;;;;;4949185;28;20042;-84
2022/11/21 04:18:57;;;;;;;11.32;4.00;;;3.10;95.60;;;;;;5000162;28;20414;-84
2022/11/21 04:22:28;;;;;;;11.10;4.90;;;3.20;95.60;;;;;;4854318;29;20106;-84
2022/11/21 04:25:30;;;;;;;10.68;4.05;;;3.20;95.60;;;;;;4949397;28;20121;-84
2022/11/21 04:28:39;;;;;;;10.65;3.80;;;3.20;95.70;;;;;;4957296;28;20055;-84
2022/11/21 04:31:36;;;;;;;11.55;4.88;;;3.20;95.70;;;;;;4911762;28;20059;-84
2022/11/21 04:34:36;;;;;;;13.82;5.15;;;3.20;95.70;;;;;;5047166;28;20198;-84
2022/11/21 04:37:21;;;;;;;9.73;3.80;;;3.20;95.70;;;;;;5042168;28;20048;-84
2022/11/21 04:40:03;;;;;;;10.70;4.25;;;3.20;95.70;;;;;;5049585;28;20054;-84
2022/11/21 04:43:36;;;;;;;10.77;4.60;;;3.20;95.70;;;;;;4997313;28;20054;-84
2022/11/21 04:46:43;;;;;;;10.27;3.63;;;3.20;95.70;;;;;;5008052;28;20050;-84
2022/11/21 04:49:53;;;;;;;6.90;3.00;;;3.20;95.60;;;;;;5022449;28;20145;-86
2022/11/21 04:53:19;;;;;;;;;;;;;;;;;;;;;
2022/11/21 04:56:15;;;;;;;8.27;3.22;;;3.20;95.60;;;;;;4975176;28;20522;-86
2022/11/21 05:02:45;;;;;;;8.38;3.70;;;3.20;95.70;;;;;;4981709;28;20047;-85
2022/11/21 05:05:32;;;;;;;12.88;4.75;;;3.20;95.70;;;;;;4996932;28;20108;-85
2022/11/21 05:08:08;;;;;;;11.25;4.43;;;3.20;95.70;;;;;;5001532;28;20052;-85
2022/11/21 05:15:50;;;;;;;9.60;5.03;;;3.20;95.70;;;;;;4975997;28;20565;-86
2022/11/21 05:18:32;;;;;;;10.45;3.83;;;3.10;95.70;;;;;;4927713;28;20129;-86
2022/11/21 05:26:02;;;;;;;11.82;4.32;;;3.10;95.70;;;;;;4998216;28;20076;-88
2022/11/21 05:28:44;;;;;;;12.25;4.47;;;3.10;95.70;;;;;;4992871;28;20050;-87
2022/11/21 05:31:32;;;;;;;10.77;3.97;;;3.10;95.70;;;;;;5024160;28;20040;-87
2022/11/21 05:34:04;;;;;;;10.10;4.28;;;3.10;95.70;;;;;;5036504;28;20516;-87
2022/11/21 05:36:33;;;;;;;10.82;4.55;;;3.20;95.80;;;;;;5056593;28;20542;-87
2022/11/21 05:39:02;;;;;;;10.23;3.83;;;3.20;95.80;;;;;;5056776;28;20131;-87
2022/11/21 05:41:41;;;;;;;12.05;5.07;;;3.20;95.80;;;;;;5073443;28;20525;-87
2022/11/21 05:44:31;;;;;;;10.80;3.63;;;3.20;95.80;;;;;;5096251;28;20044;-87
2022/11/21 05:47:02;;;;;;;8.57;3.65;;;3.20;95.80;;;;;;5092656;28;20033;-86
2022/11/21 05:49:41;;;;;;;10.75;4.13;;;3.20;95.80;;;;;;5078583;28;20078;-86
2022/11/21 05:52:18;;;;;;;9.35;3.60;;;3.20;95.80;;;;;;5085246;28;20067;-86
2022/11/21 05:54:49;;;;;;;10.77;4.18;;;3.20;95.80;;;;;;5079084;28;20048;-85
2022/11/21 05:57:19;;;;;;;;;;;3.20;95.80;;;;;;5093130;28;20490;-86
2022/11/21 05:59:55;;;;;;;9.85;3.80;;;3.20;95.80;;;;;;5102056;28;19919;-85
2022/11/21 06:05:15;;;;;;;8.90;3.15;;;3.20;95.80;;;;;;5090453;28;20096;-86
2022/11/21 06:07:49;;;;;;;9.85;4.18;;;3.30;95.80;;;;;;5079212;28;20487;-84
2022/11/21 06:14:01;;;;;;;12.63;4.78;;;3.30;95.80;;;;;;5108729;28;20059;-84
2022/11/21 06:16:28;;;;;;;;;;;3.30;95.80;;;;;;5082503;28;20052;-79
2022/11/21 06:18:55;;;;;;;7.97;3.47;;;3.30;95.80;;;;;;5105614;28;19954;-83
2022/11/21 06:25:51;;;;;;;10.73;4.65;;;3.30;95.80;;;;;;5095430;28;20487;-84
2022/11/21 06:28:35;;;;;;;10.70;3.72;;;3.30;95.70;;;;;;5104800;28;20521;-81
2022/11/21 06:31:12;;;;;;;11.65;4.28;;;3.30;95.70;;;;;;5083985;28;20542;-81
2022/11/21 06:33:49;;;;;;;13.30;5.00;;;3.40;95.80;;;;;;5083578;28;20042;-84
2022/11/21 06:36:26;;;;;;;11.70;4.40;;;3.40;95.80;;;;;;5063678;28;20073;-80
2022/11/21 06:38:55;;;;;;;12.02;4.57;;;3.40;95.80;;;;;;5105986;28;20056;-84
2022/11/21 06:41:29;;;;;;;10.02;3.97;;;3.40;95.90;;;;;;5091784;28;20470;-79
2022/11/21 06:48:07;;;;;;;10.02;4.13;;;3.40;95.70;;;;;;5096858;28;20080;-82
2022/11/21 06:50:42;;;;;;;9.13;3.63;;;3.40;95.70;;;;;;5092829;28;20507;-82
2022/11/21 06:53:09;;;;;;;9.38;3.33;;;3.40;95.70;;;;;;5101708;28;20476;-82
2022/11/21 06:55:36;;;;;;;12.25;4.18;;;3.40;95.70;;;;;;5111768;28;20036;-82
2022/11/21 06:58:06;;;;;;;8.13;3.72;;;3.40;95.80;;;;;;5083358;28;20487;-84
2022/11/21 07:01:22;;;;;;;9.77;3.90;;;3.50;95.80;;;;;;5090197;28;20051;-84
2022/11/21 07:04:01;;;;;;;12.15;4.70;;;3.50;95.80;;;;;;5078774;28;20047;-83
2022/11/21 07:06:53;;;;;;;10.85;4.65;;;3.50;95.80;;;;;;5090046;28;20048;-83
2022/11/21 07:09:28;;;;;;;9.60;4.22;;;3.50;95.80;;;;;;5089652;28;20069;-84
2022/11/21 07:15:13;;;;;;;10.63;3.97;;;3.50;95.80;;;;;;5061182;28;20045;-84
2022/11/21 07:17:49;;;;;;;12.95;4.18;;;3.50;95.80;;;;;;5089145;28;20566;-84
2022/11/21 07:20:18;;;;;;;9.95;4.07;;;3.50;95.80;;;;;;5097230;28;20047;-84
2022/11/21 07:22:54;;;;;;;;;;;3.50;95.90;;;;;;5084593;28;20043;-84
2022/11/21 07:25:28;;;;;;;9.18;3.53;;;3.50;95.90;;;;;;5094156;28;19926;-84
2022/11/21 07:28:03;;;;;;;10.68;4.10;;;3.40;95.80;;;;;;5084993;28;20047;-84
2022/11/21 07:30:36;;;;;;;9.07;3.78;;;3.50;95.90;;;;;;5087906;28;20412;-84
2022/11/21 07:33:10;;;;;;;8.30;3.25;;;3.50;95.90;;;;;;5081414;28;20044;-84
2022/11/21 07:36:11;;;;;;;8.57;3.67;;;3.50;95.90;;;;;;5070675;28;20048;-84
2022/11/21 07:38:40;;;;;;;;;;;3.50;95.90;;;;;;5083946;28;20117;-84
2022/11/21 07:41:08;;;;;;;10.05;3.70;;;3.50;96.00;;;;;;5064512;28;19986;-84
2022/11/21 07:43:41;;;;;;;9.30;4.30;;;3.50;95.90;;;;;;5072401;28;20040;-84
2022/11/21 07:46:19;;;;;;;8.25;3.08;;;3.50;95.90;;;;;;5053374;28;20044;-84
2022/11/21 07:48:55;;;;;;;10.30;4.55;;;3.60;95.90;;;;;;5057449;28;20052;-84
2022/11/21 07:51:41;;;;;;;8.85;3.38;;;3.60;95.90;;;;;;5056719;28;20113;-85
2022/11/21 07:54:11;;;;;;;12.05;4.15;;;3.60;95.90;;;;;;5078410;28;20033;-84
2022/11/21 07:56:48;;;;;;;10.00;4.32;;;3.60;95.90;;;;;;5054697;28;20044;-85
2022/11/21 07:59:39;;;;;;;10.60;4.70;;;3.60;95.90;;;;;;5056515;28;20134;-84
2022/11/21 08:02:20;;;;;;;11.60;4.05;;;3.70;95.90;;;;;;5085150;28;20044;-84
2022/11/21 08:04:54;;;;;;;11.80;4.85;;;3.70;95.90;;;;;;5068645;28;20049;-83
2022/11/21 08:07:23;;;;;;;11.15;4.35;;;3.70;95.80;;;;;;5078624;28;20135;-83
2022/11/21 08:09:59;;;;;;;14.00;5.47;;;3.70;95.90;;;;;;5082001;28;20136;-82
2022/11/21 08:12:33;;;;;;;14.10;5.70;;;3.70;95.80;;;;;;5071666;28;20059;-82
2022/11/21 08:15:00;;;;;;;11.77;5.15;;;3.70;95.80;;;;;;5071967;28;20041;-82
2022/11/21 08:17:37;;;;;;;14.00;5.40;;;3.70;95.80;;;;;;5068906;28;20048;-84
2022/11/21 08:20:14;;;;;;;11.27;4.88;;;3.80;95.90;;;;;;5078327;28;20044;-82
2022/11/21 08:22:55;;;;;;;12.23;4.95;;;3.70;96.00;;;;;;5077385;28;20040;-81
2022/11/21 08:25:39;;;;;;;13.35;5.45;;;3.80;95.90;;;;;;5082590;28;20037;-83
2022/11/21 08:28:08;;;;;;;12.45;6.05;;;3.80;95.90;;;;;;5087802;28;20040;-82
2022/11/21 08:30:43;;;;;;;13.70;5.70;;;3.80;95.80;;;;;;5082374;28;20051;-82
2022/11/21 08:33:27;;;;;;;11.80;4.63;;;3.90;95.80;;;;;;5064749;28;20135;-82
2022/11/21 08:36:02;;;;;;;13.23;5.47;;;3.80;95.80;;;;;;5069617;28;20036;-83
2022/11/21 08:38:41;;;;;;;12.13;4.88;;;3.90;95.80;;;;;;5080270;28;20098;-82
2022/11/21 08:44:15;;;;;;;10.77;4.72;;;3.90;95.90;;;;;;5075193;28;20040;-83
2022/11/21 08:46:48;;;;;;;11.02;4.00;;;3.90;95.90;;;;;;5072768;28;20048;-82
2022/11/21 08:49:15;;;;;;;10.25;4.63;;;3.90;95.80;;;;;;5064513;28;20037;-82
2022/11/21 08:51:43;;;;;;;13.20;5.30;;;3.90;95.90;;;;;;5058684;28;20045;-83
2022/11/21 08:54:33;;;;;;;8.55;4.07;;;3.90;95.90;;;;;;5064486;28;20396;-83
2022/11/21 08:57:42;;;;;;;13.48;4.82;;;3.90;95.90;;;;;;5078903;28;20080;-83
2022/11/21 09:00:18;;;;;;;10.13;3.95;;;3.90;95.90;;;;;;5076387;28;20052;-83
2022/11/21 09:02:51;;;;;;;13.02;4.97;;;3.90;95.90;;;;;;5063811;28;20119;-83
2022/11/21 09:05:23;;;;;;;;;;;4.00;95.90;;;;;;5075772;28;20040;-83
2022/11/21 09:07:58;;;;;;;9.25;4.00;;;3.90;95.90;;;;;;5078026;28;19927;-83
2022/11/21 09:10:43;;;;;;;9.60;3.72;;;4.00;95.80;;;;;;5083879;28;20067;-84
2022/11/21 09:13:18;;;;;;;13.80;5.03;;;4.00;95.80;;;;;;5092466;28;20048;-83
2022/11/21 09:18:46;;;;;;;9.73;3.90;;;4.10;95.80;;;;;;5075731;28;20040;-83
2022/11/21 09:21:20;;;;;;;10.30;3.88;;;4.10;95.80;;;;;;5066067;28;20496;-83
2022/11/21 09:23:58;;;;;;;10.75;4.70;;;4.10;95.80;;;;;;5060944;28;20045;-83
2022/11/21 09:26:33;;;;;;;9.02;4.43;;;4.10;95.80;;;;;;5074492;28;20048;-82
2022/11/21 09:29:16;;;;;;;11.45;3.83;;;4.10;95.80;;;;;;5068684;28;20040;-84
2022/11/21 09:31:54;;;;;;;9.13;3.15;;;4.20;95.80;;;;;;5073287;28;20079;-84
2022/11/21 09:34:43;;;;;;;7.72;3.03;;;4.20;95.80;;;;;;5069948;28;20131;-83
2022/11/21 09:37:19;;;;;;;7.65;3.35;;;4.20;95.80;;;;;;5088270;28;20792;-83
2022/11/21 09:40:03;;;;;;;9.90;4.20;;;4.30;95.80;;;;;;5095451;28;20059;-82
2022/11/21 09:43:18;;;;;;;9.80;3.90;;;4.30;95.80;;;;;;5107807;28;20058;-82
2022/11/21 09:45:58;;;;;;;10.98;5.03;;;4.40;95.80;;;;;;5116081;27;20066;-82
2022/11/21 09:48:57;;;;;;;11.50;4.35;;;4.50;95.80;;;;;;5093982;28;20097;-83
2022/11/21 09:51:31;;;;;;;8.85;3.72;;;4.70;95.70;;;;;;5107180;28;20067;-83
2022/11/21 09:54:06;;;;;;;10.45;3.90;;;4.70;95.60;;;;;;5100756;28;20040;-83
2022/11/21 09:56:40;;;;;;;9.13;3.58;;;4.80;95.50;;;;;;5105884;28;20098;-83
2022/11/21 09:59:40;;;;;;;9.98;3.85;;;4.80;95.50;;;;;;5100872;28;20448;-83
2022/11/21 10:02:25;;;;;;;;;;;4.80;95.50;;;;;;5086449;28;20048;-83
2022/11/21 10:04:59;;;;;;;8.90;3.60;;;4.80;95.60;;;;;;5084086;28;19927;-82
2022/11/21 10:07:31;;;;;;;12.20;4.15;;;4.80;95.50;;;;;;5094406;28;20039;-83
2022/11/21 10:10:41;;;;;;;9.52;4.50;;;4.90;95.50;;;;;;5093291;28;20487;-82
2022/11/21 10:13:42;;;;;;;12.30;4.85;;;4.90;95.60;;;;;;5080469;28;20044;-83
2022/11/21 10:16:41;;;;;;;11.65;5.30;;;4.90;95.50;;;;;;5091637;28;20414;-84
2022/11/21 10:19:46;;;;;;;11.38;4.90;;;5.00;95.60;;;;;;5089593;28;20048;-83
2022/11/21 10:22:35;;;;;;;9.63;3.63;;;5.00;95.60;;;;;;5093422;28;20040;-83
2022/11/21 10:25:29;;;;;;;10.38;4.65;;;5.00;95.60;;;;;;5091369;28;20046;-83
2022/11/21 10:28:35;;;;;;;8.68;4.15;;;5.10;95.60;;;;;;5086268;28;20051;-82
2022/11/21 10:31:16;;;;;;;11.48;5.28;;;5.10;95.60;;;;;;5093461;28;20040;-83
2022/11/21 10:33:44;;;;;;;11.57;4.63;;;5.10;95.60;;;;;;5083374;28;20069;-83
2022/11/21 10:36:35;;;;;;;12.63;5.43;;;5.10;95.60;;;;;;5082591;28;20043;-83
2022/11/21 10:39:24;;;;;;;11.55;4.10;;;5.20;95.60;;;;;;5077685;28;20545;-83
2022/11/21 10:42:11;;;;;;;10.13;4.72;;;5.20;95.60;;;;;;5070808;28;20492;-83
2022/11/21 10:47:42;;;;;;;10.57;4.18;;;5.20;95.60;;;;;;5089778;28;20071;-82
2022/11/21 10:50:51;;;;;;;9.57;4.13;;;5.20;95.60;;;;;;5073665;28;20044;-83
2022/11/21 10:57:32;;;;;;;8.35;3.85;;;5.30;95.60;;;;;;5076499;28;20048;-84
2022/11/21 11:04:31;;;;;;;7.50;2.75;;;5.40;95.60;;;;;;5078836;28;20035;-84
2022/11/21 11:07:29;;;;;;;9.60;3.40;;;5.40;95.60;;;;;;5066441;28;20058;-84
2022/11/21 11:10:28;;;;;;;7.35;3.35;;;5.60;95.60;;;;;;5050888;28;20066;-84
2022/11/21 11:16:14;;;;;;;10.52;4.13;;;5.60;95.60;;;;;;5051998;28;20049;-83
2022/11/21 11:19:16;;;;;;;12.82;6.03;;;5.60;95.50;;;;;;5036198;28;20053;-84
2022/11/21 11:21:49;;;;;;;11.27;4.78;;;5.70;95.60;;;;;;5035903;28;20066;-84
2022/11/21 11:24:29;;;;;;;9.02;4.15;;;5.70;95.60;;;;;;5051303;28;20053;-84
2022/11/21 11:27:02;;;;;;;9.35;3.92;;;5.70;95.60;;;;;;5041363;28;20052;-84
2022/11/21 11:30:06;;;;;;;10.35;4.80;;;5.80;95.60;;;;;;5065638;28;20131;-83
2022/11/21 11:32:40;;;;;;;10.52;3.72;;;5.90;95.60;;;;;;5042118;28;20571;-84
2022/11/21 11:35:11;;;;;;;11.07;4.82;;;5.90;95.50;;;;;;5003233;28;20049;-84
2022/11/21 11:37:54;;;;;;;14.10;5.22;;;6.00;95.60;;;;;;5036158;28;20040;-84
2022/11/21 11:40:43;;;;;;;9.50;5.10;;;6.00;95.50;;;;;;5039293;28;20048;-84
2022/11/21 11:47:44;;;;;;;;;;;;;;;;;;;;;
2022/11/21 11:50:52;;;;;;;9.48;3.92;;;6.50;95.40;;;;;;5069778;28;20114;-84
2022/11/21 11:53:37;;;;;;;8.88;3.88;;;6.60;95.30;;;;;;5051859;28;20041;-85
2022/11/21 11:56:32;;;;;;;9.00;3.97;;;6.60;95.20;;;;;;5056114;28;20124;-85
2022/11/21 11:59:28;;;;;;;9.43;3.95;;;6.70;95.20;;;;;;5081250;28;20519;-84
2022/11/21 12:02:24;;;;;;;8.88;3.22;;;6.70;95.30;;;;;;5086512;28;20135;-83
2022/11/21 12:05:06;;;;;;;11.57;4.47;;;6.80;95.30;;;;;;5061793;28;20105;-84
2022/11/21 12:07:48;;;;;;;10.70;5.20;;;6.80;95.20;;;;;;5073841;28;20523;-84
2022/11/21 12:13:53;;;;;;;13.65;6.00;;;6.90;95.20;;;;;;5065425;28;20198;-83
2022/11/21 12:16:22;;;;;;;9.80;4.80;;;6.90;95.30;;;;;;5073800;28;20043;-83
2022/11/21 12:23:09;;;;;;;8.60;3.78;;;7.00;95.40;;;;;;4971408;28;20051;-82
2022/11/21 12:25:45;;;;;;;14.52;4.97;;;7.00;95.30;;;;;;4986834;28;20050;-83
2022/11/21 12:28:25;;;;;;;9.18;4.30;;;7.00;95.30;;;;;;4977994;28;20096;-82
2022/11/21 12:31:16;;;;;;;11.15;5.18;;;7.10;95.30;;;;;;4983640;28;20043;-81
2022/11/21 12:34:08;;;;;;;10.25;4.03;;;7.20;95.30;;;;;;4976046;28;20133;-82
2022/11/21 12:36:43;;;;;;;8.90;4.20;;;7.20;95.30;;;;;;4987843;28;20046;-82
2022/11/21 12:39:21;;;;;;;9.00;4.00;;;7.30;95.20;;;;;;4991111;28;20164;-80
2022/11/21 12:45:32;;;;;;;9.15;4.03;;;7.30;95.20;;;;;;5032900;28;20057;-84
2022/11/21 12:54:44;;;;;;;10.00;4.55;;;7.40;95.30;;;;;;5069157;28;20083;-82
2022/11/21 12:57:13;;;;;;;6.65;3.33;;;7.30;95.30;;;;;;5093031;28;20399;-83
2022/11/21 12:59:56;;;;;;;8.13;4.10;;;7.40;95.30;;;;;;5094655;28;20135;-84
2022/11/21 13:03:03;;;;;;;8.40;3.78;;;7.30;95.30;;;;;;5093726;28;20075;-84
2022/11/21 13:05:36;;;;;;;8.35;4.07;;;7.40;95.40;;;;;;5075191;28;20060;-84
2022/11/21 13:08:17;;;;;;;6.55;3.60;;;7.30;95.40;;;;;;5106638;28;20055;-84
2022/11/21 13:14:24;;;;;;;8.32;4.10;;;7.30;95.40;;;;;;5096001;28;20044;-84
2022/11/21 13:17:34;;;;;;;7.75;4.22;;;7.30;95.40;;;;;;5078754;28;20520;-83
2022/11/21 13:20:26;;;;;;;7.88;4.13;;;7.40;95.40;;;;;;5086852;28;20044;-83
2022/11/21 13:23:05;;;;;;;7.85;3.80;;;7.40;95.40;;;;;;5096521;28;20044;-83
2022/11/21 13:25:36;;;;;;;6.97;3.25;;;7.40;95.40;;;;;;5107300;28;20097;-83
2022/11/21 13:28:16;;;;;;;5.47;3.20;;;7.50;95.40;;;;;;5111049;28;20047;-82
2022/11/21 13:30:56;;;;;;;7.03;3.72;;;7.50;95.40;;;;;;5077882;28;20082;-84
2022/11/21 13:33:38;;;;;;;5.75;3.20;;;7.50;95.40;;;;;;5092431;28;20040;-82
2022/11/21 13:36:06;;;;;;;7.20;3.88;;;7.50;95.40;;;;;;5094535;28;20047;-83
2022/11/21 13:38:53;;;;;;;6.18;3.38;;;7.50;95.40;;;;;;5108518;28;20130;-79
2022/11/21 13:44:32;;;;;;;6.60;3.47;;;7.60;95.50;;;;;;5104780;28;20104;-79
2022/11/21 13:47:03;;;;;;;6.05;2.80;;;7.50;95.40;;;;;;5096180;28;20492;-79
2022/11/21 13:50:07;;;;;;;5.75;3.05;;;7.50;95.50;;;;;;5106161;28;20048;-80
2022/11/21 13:52:41;;;;;;;6.05;3.42;;;7.60;95.50;;;;;;5082088;28;20050;-80
2022/11/21 13:55:46;;;;;;;5.80;3.22;;;7.50;95.50;;;;;;5109532;28;20392;-80
2022/11/21 13:58:29;;;;;;;5.15;2.72;;;7.60;95.50;;;;;;5098666;28;20048;-79
2022/11/21 14:01:22;;;;;;;5.30;2.97;;;7.60;95.50;;;;;;5096311;28;20048;-78
2022/11/21 14:04:16;;;;;;;5.50;2.67;;;7.70;95.50;;;;;;5101536;28;20446;-79
2022/11/21 14:06:44;;;;;;;6.03;2.35;;;7.60;95.40;;;;;;5084360;28;20059;-85
2022/11/21 14:09:17;;;;;;;4.40;1.95;;;7.60;95.50;;;;;;5090702;28;20471;-80
2022/11/21 14:11:51;;;;;;;4.57;2.47;;;7.50;95.50;;;;;;5096441;28;20086;-79
2022/11/21 14:14:46;;;;;;;5.18;2.60;;;7.50;95.60;;;;;;5094412;28;20484;-80
2022/11/21 14:17:28;;;;;;;5.75;2.65;;;7.40;95.70;;;;;;5104471;28;20184;-80
2022/11/21 14:19:58;;;;;;;3.03;1.92;;;7.30;95.70;;;;;;5082725;28;20039;-80
2022/11/21 14:22:53;;;;;;;5.03;2.15;;;7.20;95.80;;;;;;5094284;28;20055;-81
2022/11/21 14:25:40;;;;;;;4.32;2.28;;;7.10;95.80;;;;;;5051483;28;20043;-80
2022/11/21 14:28:25;;;;;;;5.25;2.50;;;7.10;95.90;;;;;;5091016;28;20043;-79
2022/11/21 14:30:58;;;;;;;4.32;2.13;;;7.00;96.00;;;;;;5083287;28;20475;-81
2022/11/21 14:33:30;;;;;;;4.40;2.22;;;6.90;96.00;;;;;;5107798;28;20044;-81
2022/11/21 14:36:02;;;;;;;6.40;2.22;;;6.90;96.00;;;;;;5087636;28;20043;-82
2022/11/21 14:38:53;;;;;;;3.28;2.15;;;6.90;96.10;;;;;;5089751;28;20487;-81
2022/11/21 14:41:41;;;;;;;4.32;2.53;;;6.80;96.10;;;;;;5096555;28;20130;-82
2022/11/21 14:44:08;;;;;;;3.70;1.80;;;6.80;96.10;;;;;;5097739;28;20406;-78
2022/11/21 14:46:37;;;;;;;5.40;2.45;;;6.80;96.10;;;;;;5102512;28;20179;-78
2022/11/21 14:49:25;;;;;;;3.53;1.88;;;6.70;96.10;;;;;;5087554;28;20048;-79
2022/11/21 14:51:57;;;;;;;4.85;2.38;;;6.70;96.20;;;;;;5095079;28;20032;-80
2022/11/21 14:54:55;;;;;;;6.15;2.65;;;6.70;96.20;;;;;;5107243;28;20059;-84
2022/11/21 14:57:43;;;;;;;5.93;2.88;;;6.70;96.20;;;;;;5083299;28;20394;-79
2022/11/21 15:00:15;;;;;;;3.95;2.22;;;6.60;96.20;;;;;;5102867;28;20132;-80
2022/11/21 15:03:02;;;;;;;4.78;2.33;;;6.60;96.30;;;;;;5067183;28;20043;-80
2022/11/21 15:05:32;;;;;;;3.95;1.73;;;6.60;96.30;;;;;;5105376;28;20106;-78
2022/11/21 15:08:25;;;;;;;3.13;1.70;;;6.50;96.30;;;;;;5092369;28;20123;-79
2022/11/21 15:11:16;;;;;;;5.25;1.85;;;6.50;96.30;;;;;;5089342;28;20044;-84
2022/11/21 15:13:46;;;;;;;4.78;2.00;;;6.50;96.30;;;;;;5086245;28;20062;-84
2022/11/21 15:16:33;;;;;;;2.92;1.55;;;6.50;96.30;;;;;;5107173;28;20036;-85
2022/11/21 15:19:08;;;;;;;3.25;1.65;;;6.50;96.40;;;;;;5088171;28;20054;-84
2022/11/21 15:21:44;;;;;;;4.88;1.80;;;6.50;96.40;;;;;;5108417;28;20071;-84
2022/11/21 15:24:36;;;;;;;3.67;2.00;;;6.50;96.40;;;;;;5095491;28;20052;-84
2022/11/21 15:27:25;;;;;;;4.15;1.92;;;6.50;96.40;;;;;;5101194;28;20048;-85
2022/11/21 15:30:09;;;;;;;4.93;2.65;;;6.50;96.40;;;;;;5093401;28;20063;-84
2022/11/21 15:33:02;;;;;;;4.55;1.95;;;6.50;96.40;;;;;;5095909;28;20047;-82
2022/11/21 15:35:41;;;;;;;4.25;1.65;;;6.50;96.40;;;;;;5079664;28;20044;-84
2022/11/21 15:38:45;;;;;;;4.78;1.67;;;6.50;96.40;;;;;;5099720;28;20075;-82
2022/11/21 15:41:16;;;;;;;4.55;2.53;;;6.50;96.30;;;;;;5075663;28;20075;-85
2022/11/21 15:43:51;;;;;;;3.75;1.73;;;6.50;96.40;;;;;;5090787;28;20131;-84
2022/11/21 15:46:27;;;;;;;2.60;1.27;;;6.50;96.40;;;;;;5105182;28;20035;-85
2022/11/21 15:49:01;;;;;;;4.75;1.90;;;6.50;96.40;;;;;;5098777;28;20402;-84
2022/11/21 15:51:51;;;;;;;3.17;1.50;;;6.50;96.40;;;;;;5093735;28;20047;-84
2022/11/21 15:54:51;;;;;;;4.45;1.60;;;6.40;96.40;;;;;;5092049;28;20040;-89
2022/11/21 15:57:26;;;;;;;3.08;1.63;;;6.40;96.40;;;;;;5107629;28;20044;-84
2022/11/21 16:00:03;;;;;;;4.55;2.00;;;6.50;96.50;;;;;;5076460;28;20136;-79
2022/11/21 16:02:37;;;;;;;3.03;1.52;;;6.50;96.50;;;;;;5107699;28;20047;-83
2022/11/21 16:05:05;;;;;;;3.92;1.58;;;6.50;96.50;;;;;;5079438;28;20048;-81
2022/11/21 16:07:32;;;;;;;4.00;1.80;;;6.50;96.40;;;;;;5095557;28;20062;-80
2022/11/21 16:09:59;;;;;;;2.45;1.45;;;6.60;96.40;;;;;;5078702;28;20376;-80
2022/11/21 16:12:26;;;;;;;3.13;1.70;;;6.60;96.40;;;;;;5069030;28;20074;-78
2022/11/21 16:14:53;;;;;;;2.85;1.52;;;6.60;96.40;;;;;;5100451;28;20105;-79
2022/11/21 16:17:20;;;;;;;5.93;2.03;;;6.60;96.40;;;;;;5094439;28;20036;-79
2022/11/21 16:19:47;;;;;;;2.83;1.65;;;6.60;96.40;;;;;;5102480;28;20081;-78
2022/11/21 16:22:15;;;;;;;3.58;1.70;;;6.60;96.40;;;;;;5062121;28;20051;-77
2022/11/21 16:24:42;;;;;;;4.95;2.10;;;6.60;96.40;;;;;;5088134;28;20052;-81
2022/11/21 16:27:09;;;;;;;3.95;2.40;;;6.50;96.40;;;;;;5092293;28;20062;-80
2022/11/21 16:29:39;;;;;;;3.63;2.03;;;6.50;96.50;;;;;;5098778;28;20581;-82
2022/11/21 16:32:06;;;;;;;3.83;2.30;;;6.50;96.50;;;;;;5076890;28;20048;-82
2022/11/21 16:34:33;;;;;;;4.05;2.42;;;6.50;96.50;;;;;;5068193;28;20044;-84
2022/11/21 16:37:00;;;;;;;5.30;1.98;;;6.50;96.50;;;;;;5091414;28;20407;-79
2022/11/21 16:39:33;;;;;;;4.47;2.70;;;6.50;96.50;;;;;;5072347;28;20043;-82
2022/11/21 16:42:00;;;;;;;6.22;2.85;;;6.50;96.50;;;;;;5075289;28;20068;-81
2022/11/21 16:44:29;;;;;;;5.65;2.85;;;6.40;96.50;;;;;;5072757;28;20455;-80
2022/11/21 16:46:56;;;;;;;6.38;3.20;;;6.40;96.50;;;;;;5088918;28;20123;-81
2022/11/21 16:49:28;;;;;;;6.43;2.90;;;6.40;96.60;;;;;;5093800;28;20040;-80
2022/11/21 16:51:57;;;;;;;5.57;2.80;;;6.40;96.60;;;;;;5094461;28;20044;-82